Time;durP1;ratioP1;P1;durP2;ratioP2;P2;SDS_P1;SDS_P2;PMS_P1;PMS_P2;Temp;Humidity;BMP_temperature;BMP_pressure;BME280_temperature;BME280_humidity;BME280_pressure;Samples;Min_cycle;Max_cycle;Signal;HPM_P1;HPM_P2
2022/10/29 00:02:19;;;;;;;1.93;1.67;;;26.10;71.90;;;;;;5035516;28;20485;-87
2022/10/29 00:04:46;;;;;;;1.90;1.80;;;26.10;71.90;;;;;;5035603;28;20804;-93
2022/10/29 00:07:14;;;;;;;2.10;2.00;;;26.10;71.90;;;;;;5035156;28;20477;-88
2022/10/29 00:09:41;;;;;;;2.23;2.07;;;26.10;71.90;;;;;;5035579;28;20473;-87
2022/10/29 00:12:09;;;;;;;2.20;2.00;;;26.10;71.90;;;;;;5035394;28;20493;-93
2022/10/29 00:14:36;;;;;;;1.87;1.77;;;26.10;71.90;;;;;;5035656;28;20446;-88
2022/10/29 00:17:03;;;;;;;1.90;1.80;;;26.10;71.90;;;;;;5035804;28;20472;-94
2022/10/29 00:19:30;;;;;;;1.97;1.87;;;26.10;71.90;;;;;;5035403;28;20484;-88
2022/10/29 00:21:56;;;;;;;2.70;2.50;;;26.10;71.90;;;;;;5035591;28;20452;-92
2022/10/29 00:24:25;;;;;;;2.37;2.17;;;26.10;71.90;;;;;;5035144;28;20532;-94
2022/10/29 00:26:53;;;;;;;2.30;2.07;;;26.10;72.00;;;;;;5035025;28;20441;-91
2022/10/29 00:29:20;;;;;;;1.70;1.60;;;26.10;71.90;;;;;;5035473;28;20527;-94
2022/10/29 00:31:49;;;;;;;2.13;1.93;;;26.10;71.90;;;;;;5034657;28;20485;-93
2022/10/29 00:34:16;;;;;;;2.30;2.00;;;26.10;71.90;;;;;;5035180;28;20486;-92
2022/10/29 00:36:42;;;;;;;1.90;1.80;;;26.10;72.00;;;;;;5034860;28;20552;-88
2022/10/29 00:39:13;;;;;;;2.03;1.93;;;26.00;71.90;;;;;;5035396;28;20445;-88
2022/10/29 00:41:41;;;;;;;2.37;2.17;;;26.10;71.90;;;;;;5035055;28;20529;-88
2022/10/29 00:44:31;;;;;;;1.83;1.73;;;26.10;71.90;;;;;;5035263;28;20445;-88
2022/10/29 00:47:04;;;;;;;2.20;2.10;;;26.10;71.90;;;;;;5035488;28;20513;-93
2022/10/29 00:49:32;;;;;;;1.83;1.70;;;26.00;71.90;;;;;;5034889;28;20437;-91
2022/10/29 00:52:02;;;;;;;1.53;1.43;;;26.10;72.00;;;;;;5035457;28;20493;-93
2022/10/29 00:54:31;;;;;;;2.13;2.03;;;26.00;71.90;;;;;;5036346;28;20545;-94
2022/10/29 00:57:04;;;;;;;1.90;1.80;;;26.00;72.70;;;;;;5036826;28;20482;-93
2022/10/29 00:59:32;;;;;;;2.07;1.87;;;26.00;71.80;;;;;;5035774;28;20442;-93
2022/10/29 01:01:59;;;;;;;2.03;1.83;;;26.00;71.80;;;;;;5034581;28;20453;-94
2022/10/29 01:04:26;;;;;;;1.77;1.67;;;26.00;71.80;;;;;;5034295;28;20446;-88
2022/10/29 01:06:54;;;;;;;1.53;1.43;;;26.00;71.90;;;;;;5033966;28;20481;-93
2022/10/29 01:09:21;;;;;;;6.10;1.90;;;26.00;71.80;;;;;;5034475;28;20544;-93
2022/10/29 01:12:01;;;;;;;4.40;2.23;;;26.10;71.90;;;;;;5034214;28;20580;-93
2022/10/29 01:14:37;;;;;;;1.83;1.73;;;26.00;71.80;;;;;;5034244;28;20453;-94
2022/10/29 01:17:10;;;;;;;1.77;1.67;;;26.00;71.80;;;;;;5034235;28;20431;-94
2022/10/29 01:20:04;;;;;;;2.40;2.10;;;26.00;72.60;;;;;;5034125;28;20437;-88
2022/10/29 01:22:39;;;;;;;1.90;1.80;;;26.10;72.70;;;;;;5025544;28;20506;-91
2022/10/29 01:25:36;;;;;;;1.77;1.67;;;26.00;71.80;;;;;;5058617;28;20481;-89
2022/10/29 01:28:19;;;;;;;1.97;1.87;;;26.10;71.80;;;;;;5043199;28;20437;-89
2022/10/29 01:31:13;;;;;;;1.97;1.87;;;26.00;71.80;;;;;;5046283;28;20485;-92
2022/10/29 01:33:43;;;;;;;1.90;1.80;;;26.00;71.70;;;;;;5046569;28;20880;-94
2022/10/29 01:36:18;;;;;;;2.60;1.83;;;26.00;71.90;;;;;;5055256;28;20471;-93
2022/10/29 01:38:53;;;;;;;1.70;1.60;;;26.00;71.80;;;;;;5054052;28;20425;-88
2022/10/29 01:41:26;;;;;;;2.33;2.13;;;26.00;71.80;;;;;;5054333;28;20526;-94
2022/10/29 01:43:59;;;;;;;2.00;1.90;;;26.00;71.80;;;;;;5053593;28;20450;-87
2022/10/29 01:46:31;;;;;;;1.90;1.80;;;26.00;71.80;;;;;;5053936;28;20867;-88
2022/10/29 01:49:03;;;;;;;2.00;1.90;;;26.00;71.80;;;;;;5036611;28;20794;-93
2022/10/29 01:51:34;;;;;;;2.23;1.90;;;26.00;71.80;;;;;;5053661;28;20487;-93
2022/10/29 01:54:06;;;;;;;2.20;2.10;;;26.00;71.80;;;;;;5054428;28;20776;-93
2022/10/29 01:56:32;;;;;;;2.23;2.03;;;26.00;72.60;;;;;;5057537;28;20445;-93
2022/10/29 01:59:02;;;;;;;1.87;1.77;;;26.00;71.80;;;;;;5057842;28;20443;-93
2022/10/29 02:01:46;;;;;;;2.03;1.93;;;26.00;71.80;;;;;;5057298;28;20451;-87
2022/10/29 02:04:33;;;;;;;2.00;1.80;;;26.00;71.70;;;;;;5057389;28;20448;-88
2022/10/29 02:07:10;;;;;;;1.93;1.80;;;26.00;71.80;;;;;;5063189;28;20838;-94
2022/10/29 02:09:44;;;;;;;1.73;1.63;;;26.00;71.80;;;;;;5077074;28;20787;-94
2022/10/29 02:12:17;;;;;;;2.43;2.23;;;26.00;71.70;;;;;;5059483;28;20484;-94
2022/10/29 02:14:50;;;;;;;2.17;1.97;;;26.00;71.70;;;;;;5077673;28;20447;-88
2022/10/29 02:17:19;;;;;;;2.03;1.93;;;26.00;71.70;;;;;;5077511;28;20436;-87
2022/10/29 02:19:46;;;;;;;1.80;1.70;;;26.00;71.80;;;;;;5077291;28;20444;-87
2022/10/29 02:22:13;;;;;;;1.80;1.70;;;26.00;71.70;;;;;;5077266;28;20439;-88
2022/10/29 02:24:39;;;;;;;2.40;2.20;;;26.00;71.80;;;;;;5077776;28;20445;-88
2022/10/29 02:27:07;;;;;;;1.90;1.80;;;26.00;71.70;;;;;;5077222;28;20446;-88
2022/10/29 02:29:34;;;;;;;1.77;1.53;;;26.00;71.70;;;;;;5077348;28;20451;-94
2022/10/29 02:32:01;;;;;;;2.30;2.10;;;26.00;71.70;;;;;;5077270;28;20513;-88
2022/10/29 02:34:29;;;;;;;1.50;1.40;;;26.00;71.60;;;;;;5077157;28;20863;-94
2022/10/29 02:36:55;;;;;;;2.00;1.90;;;26.00;71.60;;;;;;5077348;28;21013;-89
2022/10/29 02:39:22;;;;;;;1.90;1.80;;;26.00;71.60;;;;;;5077405;28;20527;-94
2022/10/29 02:41:49;;;;;;;1.97;1.87;;;26.00;71.60;;;;;;5077209;28;20442;-94
2022/10/29 02:44:16;;;;;;;1.87;1.77;;;26.00;71.60;;;;;;5076489;28;20451;-90
2022/10/29 02:46:43;;;;;;;2.07;1.97;;;26.00;71.60;;;;;;5076793;28;20433;-88
2022/10/29 02:49:09;;;;;;;1.83;1.73;;;26.00;71.60;;;;;;5076688;28;20447;-88
2022/10/29 02:51:38;;;;;;;1.97;1.87;;;26.00;71.60;;;;;;5076727;28;20574;-93
2022/10/29 02:54:05;;;;;;;1.63;1.53;;;26.00;71.60;;;;;;5076818;28;20520;-94
2022/10/29 02:56:32;;;;;;;1.90;1.80;;;26.00;71.60;;;;;;5077042;28;20450;-93
2022/10/29 02:58:58;;;;;;;2.30;2.03;;;26.00;71.60;;;;;;5076938;28;20454;-94
2022/10/29 03:01:25;;;;;;;1.97;1.87;;;26.00;71.60;;;;;;5076897;28;20445;-88
2022/10/29 03:03:52;;;;;;;1.90;1.80;;;26.00;71.60;;;;;;5076930;28;20432;-88
2022/10/29 03:06:20;;;;;;;1.87;1.73;;;26.00;71.60;;;;;;5075080;28;20984;-88
2022/10/29 03:08:49;;;;;;;1.80;1.70;;;26.00;71.50;;;;;;5076509;28;20466;-94
2022/10/29 03:11:16;;;;;;;1.60;1.50;;;25.90;71.50;;;;;;5076147;28;20950;-93
2022/10/29 03:13:43;;;;;;;1.77;1.67;;;25.90;71.50;;;;;;5076142;28;20444;-91
2022/10/29 03:16:10;;;;;;;2.20;2.00;;;26.00;71.50;;;;;;5076611;28;20444;-88
2022/10/29 03:18:37;;;;;;;2.20;1.87;;;26.00;71.50;;;;;;5076139;28;20441;-88
2022/10/29 03:21:04;;;;;;;1.97;1.87;;;26.00;71.50;;;;;;5076527;28;20447;-94
2022/10/29 03:23:31;;;;;;;1.87;1.70;;;26.00;72.40;;;;;;5076220;28;20952;-93
2022/10/29 03:25:59;;;;;;;2.10;2.00;;;26.00;71.50;;;;;;5076558;28;20439;-94
2022/10/29 03:28:29;;;;;;;2.20;1.87;;;26.00;71.50;;;;;;5059261;28;20547;-91
2022/10/29 03:30:55;;;;;;;2.00;1.80;;;25.90;71.50;;;;;;5076617;28;20435;-88
2022/10/29 03:33:24;;;;;;;1.80;1.70;;;25.90;71.50;;;;;;5076840;28;20570;-88
2022/10/29 03:35:56;;;;;;;2.00;1.90;;;26.00;71.50;;;;;;5077428;28;20502;-94
2022/10/29 03:38:22;;;;;;;1.67;1.57;;;26.00;71.50;;;;;;5077998;28;20433;-94
2022/10/29 03:40:49;;;;;;;1.90;1.80;;;25.90;71.40;;;;;;5079678;28;20435;-94
2022/10/29 03:43:17;;;;;;;1.60;1.50;;;25.90;72.30;;;;;;5077613;28;20453;-89
2022/10/29 03:45:44;;;;;;;2.03;1.93;;;25.90;71.50;;;;;;5075620;28;20461;-94
2022/10/29 03:48:11;;;;;;;1.90;1.70;;;26.00;71.50;;;;;;5075506;28;20536;-94
2022/10/29 03:50:38;;;;;;;1.80;1.70;;;25.90;71.40;;;;;;5075825;28;20462;-91
2022/10/29 03:53:05;;;;;;;2.20;2.10;;;25.90;71.40;;;;;;5075564;28;20483;-94
2022/10/29 03:55:32;;;;;;;1.53;1.43;;;25.90;71.40;;;;;;5075445;28;20527;-94
2022/10/29 03:57:58;;;;;;;1.90;1.80;;;26.00;71.50;;;;;;5075172;28;20527;-88
2022/10/29 04:00:27;;;;;;;1.73;1.63;;;25.90;71.40;;;;;;5075525;28;20536;-88
2022/10/29 04:02:53;;;;;;;2.00;1.80;;;25.90;71.30;;;;;;5075330;28;20432;-88
2022/10/29 04:05:20;;;;;;;2.00;1.67;;;25.90;71.40;;;;;;5074860;28;21056;-88
2022/10/29 04:07:47;;;;;;;1.50;1.40;;;25.90;71.30;;;;;;5075168;28;20475;-88
2022/10/29 04:10:14;;;;;;;1.87;1.77;;;25.90;71.30;;;;;;5075167;28;20451;-93
2022/10/29 04:12:45;;;;;;;1.93;1.83;;;25.90;71.40;;;;;;5074736;28;20558;-88
2022/10/29 04:15:12;;;;;;;1.80;1.70;;;25.90;71.30;;;;;;5074716;28;20433;-88
2022/10/29 04:17:40;;;;;;;1.43;1.33;;;25.90;71.30;;;;;;5074584;28;20539;-87
2022/10/29 04:20:08;;;;;;;1.90;1.80;;;25.90;71.30;;;;;;5076024;28;20435;-93
2022/10/29 04:22:35;;;;;;;2.07;1.97;;;25.90;71.30;;;;;;5075464;28;20451;-94
2022/10/29 04:25:01;;;;;;;1.90;1.80;;;25.90;71.30;;;;;;5074683;28;20515;-94
2022/10/29 04:27:29;;;;;;;1.90;1.80;;;25.90;71.30;;;;;;5074807;28;20435;-88
2022/10/29 04:29:56;;;;;;;1.90;1.80;;;25.90;71.30;;;;;;5074813;28;20470;-94
2022/10/29 04:32:55;;;;;;;2.27;2.07;;;25.90;71.30;;;;;;5069853;28;20526;-88
2022/10/29 04:35:22;;;;;;;1.80;1.70;;;25.90;71.20;;;;;;5072196;28;20468;-88
2022/10/29 04:37:49;;;;;;;1.77;1.60;;;25.90;71.40;;;;;;5076522;28;20452;-88
2022/10/29 04:40:17;;;;;;;2.30;2.00;;;25.90;71.40;;;;;;5076580;28;20923;-94
2022/10/29 04:42:44;;;;;;;1.90;1.80;;;25.90;71.30;;;;;;5075751;28;20534;-95
2022/10/29 04:45:11;;;;;;;1.73;1.60;;;25.90;71.30;;;;;;5074479;28;20442;-92
2022/10/29 04:47:38;;;;;;;1.83;1.73;;;25.90;71.30;;;;;;5074400;28;20439;-88
2022/10/29 04:53:30;;;;;;;1.87;1.77;;;25.90;71.20;;;;;;5054032;28;20542;-94
2022/10/29 04:56:00;;;;;;;2.40;2.20;;;25.80;71.30;;;;;;5054126;28;20440;-88
2022/10/29 04:58:27;;;;;;;1.80;1.70;;;25.80;71.30;;;;;;5020137;28;20440;-93
2022/10/29 05:00:54;;;;;;;1.93;1.83;;;25.90;71.30;;;;;;5054381;28;20447;-88
2022/10/29 05:03:20;;;;;;;2.10;1.90;;;25.90;71.40;;;;;;5053838;28;20955;-87
2022/10/29 05:05:47;;;;;;;1.87;1.77;;;25.90;71.30;;;;;;5053822;28;20469;-91
2022/10/29 05:08:14;;;;;;;1.60;1.50;;;25.80;71.20;;;;;;5040183;28;20488;-94
2022/10/29 05:10:42;;;;;;;2.50;2.40;;;25.80;71.20;;;;;;5035025;28;20477;-94
2022/10/29 05:13:11;;;;;;;1.73;1.63;;;25.90;71.20;;;;;;5034156;28;20491;-89
2022/10/29 05:15:39;;;;;;;1.63;1.53;;;25.90;71.20;;;;;;5035069;28;20434;-88
2022/10/29 05:18:06;;;;;;;1.73;1.63;;;25.80;71.10;;;;;;5034598;28;20440;-88
2022/10/29 05:20:34;;;;;;;1.73;1.63;;;25.80;71.10;;;;;;5034420;28;20551;-94
2022/10/29 05:23:01;;;;;;;1.70;1.60;;;26.00;71.30;;;;;;5034219;28;20441;-94
2022/10/29 05:25:29;;;;;;;1.67;1.57;;;25.90;71.20;;;;;;5033704;28;20448;-93
2022/10/29 05:28:06;;;;;;;1.70;1.60;;;25.80;71.10;;;;;;5034666;28;20928;-94
2022/10/29 05:30:33;;;;;;;1.83;1.73;;;25.90;71.20;;;;;;5038591;28;20463;-94
2022/10/29 05:33:00;;;;;;;1.83;1.73;;;25.80;71.20;;;;;;5038010;28;20481;-87
2022/10/29 05:35:27;;;;;;;1.70;1.60;;;25.80;71.10;;;;;;5038531;28;20469;-94
2022/10/29 05:37:55;;;;;;;1.70;1.60;;;25.90;71.30;;;;;;5038036;28;20454;-94
2022/10/29 05:40:23;;;;;;;2.07;1.97;;;25.80;71.30;;;;;;5038083;28;20449;-88
2022/10/29 05:42:50;;;;;;;2.00;1.90;;;25.90;71.20;;;;;;5037775;28;20444;-88
2022/10/29 05:45:18;;;;;;;2.10;2.00;;;25.80;71.10;;;;;;5038276;28;20440;-94
2022/10/29 05:47:45;;;;;;;1.80;1.70;;;25.90;71.20;;;;;;5038471;28;20445;-88
2022/10/29 05:50:13;;;;;;;1.70;1.60;;;25.80;71.10;;;;;;5039722;28;20459;-94
2022/10/29 05:52:40;;;;;;;1.83;1.73;;;25.80;71.10;;;;;;5021770;28;20479;-93
2022/10/29 05:55:08;;;;;;;1.43;1.33;;;25.80;71.10;;;;;;5046744;28;20453;-91
2022/10/29 05:57:34;;;;;;;1.90;1.80;;;25.80;71.10;;;;;;5061899;28;20432;-89
2022/10/29 06:00:01;;;;;;;2.07;1.93;;;25.80;71.10;;;;;;5062679;28;20460;-92
2022/10/29 06:02:29;;;;;;;1.60;1.50;;;25.90;71.20;;;;;;5052834;28;20445;-94
2022/10/29 06:04:56;;;;;;;2.00;1.90;;;25.80;71.00;;;;;;5038254;28;20476;-94
2022/10/29 06:07:23;;;;;;;2.00;1.90;;;26.00;71.20;;;;;;5038631;28;20830;-95
2022/10/29 06:09:50;;;;;;;1.60;1.50;;;25.80;71.90;;;;;;5038839;28;20445;-94
2022/10/29 06:12:16;;;;;;;1.77;1.67;;;25.80;71.10;;;;;;5038835;28;20459;-94
2022/10/29 06:14:43;;;;;;;2.93;1.97;;;25.80;71.10;;;;;;5038796;28;20445;-94
2022/10/29 06:17:10;;;;;;;1.67;1.57;;;25.80;71.10;;;;;;5038662;28;20451;-94
2022/10/29 06:19:38;;;;;;;4.40;1.60;;;25.80;71.10;;;;;;5038685;28;20446;-94
2022/10/29 06:22:05;;;;;;;1.80;1.70;;;25.80;71.10;;;;;;5039070;28;20449;-94
2022/10/29 06:24:32;;;;;;;2.10;1.90;;;25.90;71.20;;;;;;5040090;28;20454;-95
2022/10/29 06:26:59;;;;;;;2.00;1.90;;;25.80;71.10;;;;;;5047847;28;20471;-93
2022/10/29 06:29:25;;;;;;;1.77;1.60;;;25.80;71.10;;;;;;5042144;28;20434;-94
2022/10/29 06:31:52;;;;;;;1.53;1.43;;;25.80;71.10;;;;;;5037259;28;20933;-94
2022/10/29 06:34:19;;;;;;;1.67;1.57;;;25.80;71.10;;;;;;5036953;28;20857;-94
2022/10/29 06:36:47;;;;;;;1.90;1.80;;;25.80;71.10;;;;;;5037315;28;20463;-94
2022/10/29 06:39:14;;;;;;;1.70;1.60;;;25.80;71.10;;;;;;5037122;28;20824;-94
2022/10/29 06:41:41;;;;;;;1.77;1.67;;;25.80;71.10;;;;;;5020778;28;20535;-94
2022/10/29 06:44:08;;;;;;;2.10;2.00;;;25.80;71.10;;;;;;5019326;28;20943;-94
2022/10/29 06:46:35;;;;;;;1.67;1.57;;;25.80;71.10;;;;;;5036804;28;20453;-91
2022/10/29 06:49:02;;;;;;;5.80;2.30;;;25.80;71.10;;;;;;5038064;28;20445;-93
2022/10/29 06:55:01;;;;;;;3.60;3.00;;;25.80;71.00;;;;;;4995793;28;20522;-90
2022/10/29 06:57:28;;;;;;;4.03;2.20;;;25.80;71.20;;;;;;5032144;28;20890;-90
2022/10/29 06:59:55;;;;;;;2.23;2.07;;;25.70;71.10;;;;;;5054468;28;20442;-91
2022/10/29 07:02:22;;;;;;;3.77;2.77;;;25.70;71.00;;;;;;5056175;28;20802;-91
2022/10/29 07:04:49;;;;;;;2.73;2.53;;;25.70;71.10;;;;;;5035656;28;20987;-91
2022/10/29 07:07:17;;;;;;;2.93;2.70;;;25.70;71.10;;;;;;5035657;28;20570;-91
2022/10/29 07:09:43;;;;;;;3.43;3.07;;;25.70;71.10;;;;;;5035787;28;20481;-91
2022/10/29 07:12:12;;;;;;;3.17;2.30;;;25.70;71.10;;;;;;5035474;28;20432;-93
2022/10/29 07:14:38;;;;;;;3.10;2.40;;;25.70;71.00;;;;;;5035599;28;20489;-90
2022/10/29 07:17:06;;;;;;;2.80;2.40;;;25.70;71.20;;;;;;5035910;28;20457;-90
2022/10/29 07:19:33;;;;;;;4.13;2.80;;;25.80;71.40;;;;;;5035905;28;20440;-91
2022/10/29 07:22:00;;;;;;;4.53;2.30;;;25.70;71.40;;;;;;5035597;28;20445;-90
2022/10/29 07:24:27;;;;;;;2.07;1.97;;;25.70;71.60;;;;;;5035708;28;20551;-90
2022/10/29 07:26:55;;;;;;;6.50;2.67;;;25.70;71.60;;;;;;5035555;28;20440;-91
2022/10/29 07:29:23;;;;;;;3.40;2.77;;;25.80;71.80;;;;;;5036612;28;20775;-90
2022/10/29 07:31:50;;;;;;;2.90;2.33;;;25.80;71.90;;;;;;5036124;28;20457;-91
2022/10/29 07:34:17;;;;;;;3.07;2.77;;;25.80;71.90;;;;;;5035121;28;20497;-90
2022/10/29 07:36:43;;;;;;;2.70;2.50;;;25.90;72.10;;;;;;5035516;28;20462;-92
2022/10/29 07:39:10;;;;;;;3.03;2.83;;;25.80;72.00;;;;;;5035171;28;20529;-90
2022/10/29 07:41:37;;;;;;;2.93;2.67;;;25.80;72.10;;;;;;5034952;28;20552;-90
2022/10/29 07:44:04;;;;;;;4.23;2.37;;;25.80;72.10;;;;;;5035208;28;20933;-90
2022/10/29 07:46:32;;;;;;;2.77;2.57;;;25.80;72.10;;;;;;5035386;28;20467;-92
2022/10/29 07:48:59;;;;;;;2.53;2.33;;;25.80;72.10;;;;;;5035220;28;20451;-90
2022/10/29 07:51:25;;;;;;;2.50;2.30;;;25.80;72.10;;;;;;5035150;28;20448;-92
2022/10/29 07:53:52;;;;;;;3.07;2.70;;;25.80;72.20;;;;;;5034624;28;20488;-92
2022/10/29 07:56:19;;;;;;;3.83;2.40;;;25.80;72.10;;;;;;5035006;28;20948;-90
2022/10/29 07:58:46;;;;;;;3.17;2.50;;;25.80;72.10;;;;;;5035153;28;20445;-90
2022/10/29 08:01:13;;;;;;;2.67;2.47;;;25.90;72.20;;;;;;5035731;28;20445;-91
2022/10/29 08:03:41;;;;;;;4.23;2.40;;;25.80;72.00;;;;;;5035391;28;20451;-91
2022/10/29 08:06:08;;;;;;;3.27;2.97;;;25.90;72.00;;;;;;5035409;28;20448;-91
2022/10/29 08:08:34;;;;;;;2.70;2.50;;;25.90;72.10;;;;;;5037197;28;20492;-94
2022/10/29 08:11:02;;;;;;;2.57;2.37;;;25.90;72.10;;;;;;5035334;28;20453;-92
2022/10/29 08:13:30;;;;;;;5.50;3.10;;;25.90;72.10;;;;;;5036049;28;20849;-88
2022/10/29 08:15:57;;;;;;;4.13;3.73;;;25.90;72.10;;;;;;5035065;28;20442;-87
2022/10/29 08:18:23;;;;;;;3.90;3.50;;;25.90;71.90;;;;;;5036380;28;20537;-88
2022/10/29 08:20:52;;;;;;;3.43;3.23;;;25.90;71.70;;;;;;5034760;28;20447;-87
2022/10/29 08:23:18;;;;;;;5.40;3.53;;;25.90;71.60;;;;;;5034680;28;20491;-90
2022/10/29 08:25:45;;;;;;;4.73;3.10;;;25.90;71.60;;;;;;5035256;28;20456;-89
2022/10/29 08:28:13;;;;;;;3.67;3.10;;;26.10;71.60;;;;;;5034624;28;20441;-87
2022/10/29 08:30:42;;;;;;;3.90;3.60;;;25.90;71.50;;;;;;5034232;28;20454;-87
2022/10/29 08:33:10;;;;;;;2.93;2.73;;;25.90;71.50;;;;;;5034507;28;20449;-87
2022/10/29 08:35:37;;;;;;;3.30;3.10;;;25.90;71.50;;;;;;5016448;28;20968;-88
2022/10/29 08:38:05;;;;;;;5.17;3.17;;;25.90;71.60;;;;;;5034879;28;20456;-89
2022/10/29 08:40:39;;;;;;;4.03;3.30;;;25.90;71.60;;;;;;5034084;28;20446;-87
2022/10/29 08:43:35;;;;;;;3.53;3.17;;;26.00;71.70;;;;;;5034256;28;20451;-86
2022/10/29 08:46:04;;;;;;;3.23;2.73;;;26.00;71.60;;;;;;5034419;28;20448;-87
2022/10/29 08:48:38;;;;;;;5.70;3.67;;;26.00;71.70;;;;;;5034260;28;20452;-86
2022/10/29 08:51:13;;;;;;;3.27;2.97;;;26.10;71.60;;;;;;5034356;28;21016;-88
2022/10/29 08:53:44;;;;;;;3.20;2.60;;;26.10;71.50;;;;;;5033922;28;20485;-86
2022/10/29 08:56:16;;;;;;;6.80;3.43;;;26.20;71.40;;;;;;5034338;28;20445;-86
2022/10/29 08:58:48;;;;;;;3.13;2.80;;;26.40;71.50;;;;;;5034107;28;20477;-85
2022/10/29 09:01:22;;;;;;;5.50;2.90;;;26.50;71.40;;;;;;5034403;28;20434;-86
2022/10/29 09:03:49;;;;;;;4.80;2.70;;;26.30;71.10;;;;;;5033802;28;20488;-88
2022/10/29 09:06:24;;;;;;;3.00;2.73;;;26.30;71.00;;;;;;5033967;28;20449;-87
2022/10/29 09:09:04;;;;;;;6.50;3.23;;;26.30;71.00;;;;;;5033555;28;20434;-87
2022/10/29 09:11:47;;;;;;;2.70;2.50;;;26.30;70.90;;;;;;5033487;28;20515;-87
2022/10/29 09:14:34;;;;;;;2.80;2.43;;;26.30;71.00;;;;;;5033601;28;20486;-86
2022/10/29 09:17:16;;;;;;;4.57;3.57;;;26.30;71.10;;;;;;5037847;28;20445;-87
2022/10/29 09:20:02;;;;;;;3.40;2.77;;;26.20;71.20;;;;;;5054084;28;20444;-88
2022/10/29 09:22:39;;;;;;;2.77;2.57;;;26.20;71.30;;;;;;5049340;28;20517;-86
2022/10/29 09:25:20;;;;;;;2.87;2.67;;;26.40;71.50;;;;;;5053477;28;20444;-88
2022/10/29 09:28:00;;;;;;;2.97;2.77;;;26.20;71.40;;;;;;5054148;28;20432;-87
2022/10/29 09:30:31;;;;;;;3.13;2.80;;;26.20;71.50;;;;;;5053515;28;20527;-86
2022/10/29 09:33:03;;;;;;;3.00;2.80;;;26.10;71.60;;;;;;5053221;28;20444;-89
2022/10/29 09:35:38;;;;;;;3.73;3.00;;;26.10;71.60;;;;;;5053136;28;20494;-88
2022/10/29 09:38:17;;;;;;;2.73;2.53;;;26.10;71.80;;;;;;5053297;28;20451;-88
2022/10/29 09:40:45;;;;;;;3.00;2.50;;;26.10;71.80;;;;;;5053324;28;20440;-88
2022/10/29 09:43:19;;;;;;;4.33;2.97;;;26.10;71.90;;;;;;5053428;28;20439;-86
2022/10/29 09:45:52;;;;;;;2.37;2.10;;;26.10;71.90;;;;;;5053521;28;20454;-89
2022/10/29 09:48:26;;;;;;;4.43;2.70;;;26.20;72.10;;;;;;5053297;28;20446;-85
2022/10/29 09:51:06;;;;;;;3.53;2.90;;;26.30;71.90;;;;;;5053721;28;20433;-86
2022/10/29 09:53:33;;;;;;;2.77;2.57;;;26.40;71.60;;;;;;5053520;28;20441;-86
2022/10/29 09:56:01;;;;;;;2.77;2.57;;;26.40;71.50;;;;;;5053124;28;20442;-84
2022/10/29 09:58:28;;;;;;;4.10;2.70;;;26.40;71.40;;;;;;5053188;28;20452;-86
2022/10/29 10:00:56;;;;;;;3.57;3.27;;;26.40;71.60;;;;;;5053088;28;20447;-84
2022/10/29 10:03:29;;;;;;;5.60;3.10;;;26.40;71.60;;;;;;5053128;28;20445;-89
2022/10/29 10:05:59;;;;;;;3.30;2.53;;;26.40;71.80;;;;;;5053268;28;20445;-87
2022/10/29 10:08:26;;;;;;;3.00;2.80;;;26.40;71.90;;;;;;5053028;28;20801;-86
2022/10/29 10:10:54;;;;;;;2.40;2.20;;;26.40;71.90;;;;;;5052888;28;20437;-86
2022/10/29 10:13:24;;;;;;;3.13;2.87;;;26.50;71.80;;;;;;5053069;28;20443;-85
2022/10/29 10:15:53;;;;;;;2.63;2.43;;;26.60;71.60;;;;;;5054568;28;20444;-86
2022/10/29 10:18:22;;;;;;;2.50;2.40;;;26.70;71.40;;;;;;5056574;28;20460;-86
2022/10/29 10:21:02;;;;;;;3.40;2.70;;;26.70;71.40;;;;;;5056604;28;20446;-86
2022/10/29 10:23:30;;;;;;;2.57;2.37;;;26.70;71.30;;;;;;5056743;28;20449;-88
2022/10/29 10:26:00;;;;;;;2.90;2.33;;;26.60;71.20;;;;;;5040920;28;20446;-91
2022/10/29 10:28:30;;;;;;;3.23;2.93;;;26.60;71.40;;;;;;5047723;28;20450;-86
2022/10/29 10:31:16;;;;;;;4.20;3.00;;;26.60;71.40;;;;;;5061326;28;20430;-91
2022/10/29 10:33:51;;;;;;;2.93;2.63;;;26.60;71.40;;;;;;5060788;28;20480;-92
2022/10/29 10:36:20;;;;;;;3.27;2.97;;;26.60;71.60;;;;;;5044583;28;20540;-87
2022/10/29 10:38:50;;;;;;;2.93;2.70;;;26.60;71.80;;;;;;5036993;28;20444;-90
2022/10/29 10:41:23;;;;;;;3.30;2.60;;;26.50;71.90;;;;;;5037390;28;20806;-91
2022/10/29 10:43:52;;;;;;;3.10;2.67;;;26.60;72.00;;;;;;5036714;28;20921;-90
2022/10/29 10:46:24;;;;;;;3.20;2.73;;;26.50;72.10;;;;;;5037169;28;20446;-86
2022/10/29 10:48:59;;;;;;;2.87;2.60;;;26.50;72.20;;;;;;5036783;28;20422;-88
2022/10/29 10:51:29;;;;;;;5.23;2.90;;;26.60;72.40;;;;;;5036886;28;20448;-91
2022/10/29 10:53:58;;;;;;;2.90;2.70;;;26.60;72.40;;;;;;5036690;28;20474;-86
2022/10/29 10:56:24;;;;;;;4.67;2.90;;;26.60;72.30;;;;;;5036938;28;20557;-91
2022/10/29 10:59:00;;;;;;;3.90;2.60;;;26.60;72.40;;;;;;5036464;28;20457;-91
2022/10/29 11:01:32;;;;;;;3.37;2.87;;;26.70;72.50;;;;;;5036659;28;20439;-90
2022/10/29 11:04:04;;;;;;;2.80;2.50;;;26.70;72.70;;;;;;5036794;28;20480;-90
2022/10/29 11:06:35;;;;;;;3.40;2.37;;;26.70;72.60;;;;;;5036314;28;20928;-92
2022/10/29 11:09:08;;;;;;;4.53;2.90;;;26.70;72.50;;;;;;5036631;28;20441;-93
2022/10/29 11:11:39;;;;;;;2.83;2.53;;;26.70;72.50;;;;;;5036715;28;20435;-95
2022/10/29 11:14:14;;;;;;;2.73;2.50;;;26.80;72.60;;;;;;5036401;28;20561;-90
2022/10/29 11:16:46;;;;;;;3.17;2.80;;;26.80;72.50;;;;;;5036519;28;20438;-90
2022/10/29 11:19:20;;;;;;;2.30;2.10;;;26.80;72.50;;;;;;5036986;28;20442;-91
2022/10/29 11:22:00;;;;;;;3.67;2.47;;;26.70;73.20;;;;;;5037007;28;20450;-90
2022/10/29 11:24:36;;;;;;;3.10;2.03;;;26.70;72.40;;;;;;5036487;28;20441;-90
2022/10/29 11:27:12;;;;;;;4.33;3.47;;;26.70;72.50;;;;;;5035078;28;20434;-93
2022/10/29 11:29:45;;;;;;;2.47;2.27;;;26.80;72.50;;;;;;5035656;28;20423;-93
2022/10/29 11:32:17;;;;;;;4.50;2.43;;;26.80;72.40;;;;;;5035708;28;20438;-87
2022/10/29 11:34:53;;;;;;;3.93;3.10;;;26.80;72.50;;;;;;5035524;28;20494;-93
2022/10/29 11:37:27;;;;;;;3.90;3.40;;;26.80;72.60;;;;;;5035505;28;20917;-90
2022/10/29 11:39:59;;;;;;;4.43;4.03;;;26.70;72.50;;;;;;5035763;28;20439;-90
2022/10/29 11:42:26;;;;;;;6.67;6.07;;;26.90;72.80;;;;;;5036419;28;20437;-90
2022/10/29 11:44:58;;;;;;;6.97;6.20;;;26.70;73.40;;;;;;5035432;28;20438;-90
2022/10/29 11:47:38;;;;;;;6.20;5.77;;;26.80;72.70;;;;;;5035487;28;20855;-93
2022/10/29 11:50:25;;;;;;;10.43;7.77;;;26.80;72.70;;;;;;5035968;28;20525;-90
2022/10/29 11:52:58;;;;;;;10.30;9.13;;;26.80;72.60;;;;;;5036225;28;20446;-90
2022/10/29 11:55:38;;;;;;;11.20;10.10;;;26.80;72.70;;;;;;5037073;28;20802;-93
2022/10/29 11:58:15;;;;;;;13.37;11.97;;;26.80;72.80;;;;;;5037211;28;20465;-92
2022/10/29 12:00:56;;;;;;;12.87;11.67;;;26.80;72.90;;;;;;5036730;28;20445;-90
2022/10/29 12:03:42;;;;;;;18.73;14.63;;;26.80;72.80;;;;;;5035457;28;20463;-90
2022/10/29 12:06:16;;;;;;;17.43;15.60;;;26.80;72.80;;;;;;5035298;28;20438;-93
2022/10/29 12:09:01;;;;;;;16.73;15.17;;;26.80;72.90;;;;;;5035198;28;20901;-90
2022/10/29 12:11:38;;;;;;;16.87;15.07;;;26.80;72.80;;;;;;5035924;28;20442;-89
2022/10/29 12:14:21;;;;;;;17.27;14.87;;;26.80;72.80;;;;;;5035259;28;20450;-91
2022/10/29 12:16:59;;;;;;;18.67;16.77;;;26.90;72.90;;;;;;5034951;28;20442;-90
2022/10/29 12:19:37;;;;;;;17.27;15.33;;;26.90;72.90;;;;;;5034871;28;20452;-91
2022/10/29 12:22:18;;;;;;;16.67;14.40;;;26.90;72.80;;;;;;5035665;28;20447;-91
2022/10/29 12:25:04;;;;;;;15.13;13.63;;;26.90;72.80;;;;;;5034431;28;20947;-90
2022/10/29 12:27:38;;;;;;;17.00;13.90;;;26.90;72.80;;;;;;5034853;28;20783;-90
2022/10/29 12:30:07;;;;;;;15.20;13.60;;;26.80;72.90;;;;;;5034710;28;20496;-94
2022/10/29 12:32:41;;;;;;;15.43;13.90;;;26.80;73.10;;;;;;5034651;28;20450;-90
2022/10/29 12:35:16;;;;;;;15.70;13.60;;;26.80;72.70;;;;;;5034332;28;20487;-90
2022/10/29 12:37:48;;;;;;;13.07;11.67;;;26.90;72.80;;;;;;5034237;28;20436;-90
2022/10/29 12:40:21;;;;;;;15.13;13.50;;;26.80;72.70;;;;;;5034592;28;20936;-93
2022/10/29 12:42:49;;;;;;;19.50;13.20;;;26.80;72.80;;;;;;5034611;28;20426;-91
2022/10/29 12:45:29;;;;;;;14.07;12.70;;;26.80;72.80;;;;;;5034642;28;20457;-90
2022/10/29 12:48:03;;;;;;;14.07;11.83;;;26.80;72.80;;;;;;5034329;28;20438;-92
2022/10/29 12:50:43;;;;;;;11.00;9.93;;;26.80;72.80;;;;;;5034384;28;20437;-90
2022/10/29 12:53:22;;;;;;;11.70;10.50;;;26.80;72.80;;;;;;5034245;28;20445;-90
2022/10/29 12:55:51;;;;;;;12.50;11.30;;;26.80;72.80;;;;;;5034009;28;20486;-90
2022/10/29 12:58:48;;;;;;;13.00;11.70;;;26.80;72.90;;;;;;5034190;28;20457;-90
2022/10/29 13:01:46;;;;;;;10.70;9.70;;;26.80;72.80;;;;;;5034256;28;20454;-90
2022/10/29 13:04:26;;;;;;;10.97;10.00;;;26.80;72.90;;;;;;5034524;28;20459;-90
2022/10/29 13:07:25;;;;;;;10.63;9.63;;;26.80;73.00;;;;;;5034225;28;20477;-90
2022/10/29 13:10:44;;;;;;;11.63;10.53;;;26.80;73.00;;;;;;5029132;28;20438;-90
2022/10/29 13:13:22;;;;;;;10.03;8.83;;;26.80;73.00;;;;;;5034208;28;20448;-90